createdAt,value
2023-03-18T00:01:07.470Z,13.40
2023-03-18T00:03:54.226Z,13.40
2023-03-18T00:06:41.119Z,13.30
2023-03-18T00:09:27.459Z,13.40
2023-03-18T00:12:15.289Z,13.30
2023-03-18T00:15:02.517Z,13.30
2023-03-18T00:17:49.581Z,13.30
2023-03-18T00:20:39.526Z,13.30
2023-03-18T00:23:27.885Z,13.20
2023-03-18T00:26:14.363Z,13.20
2023-03-18T00:29:02.787Z,13.20
2023-03-18T00:31:49.681Z,13.20
2023-03-18T00:34:36.140Z,13.10
2023-03-18T00:37:30.469Z,13.10
2023-03-18T00:40:20.494Z,13.10
2023-03-18T00:43:08.824Z,13.00
2023-03-18T00:45:57.816Z,13.10
2023-03-18T00:48:44.288Z,12.90
2023-03-18T00:51:32.938Z,12.80
2023-03-18T00:54:20.881Z,12.90
2023-03-18T00:57:08.032Z,12.80
2023-03-18T00:59:54.740Z,12.90
2023-03-18T01:02:43.092Z,12.80
2023-03-18T01:05:30.424Z,12.80
2023-03-18T01:08:17.401Z,12.70
2023-03-18T01:11:04.296Z,12.70
2023-03-18T01:13:51.656Z,12.60
2023-03-18T01:16:38.279Z,12.70
2023-03-18T01:19:26.746Z,12.60
2023-03-18T01:22:13.534Z,12.50
2023-03-18T01:24:59.954Z,12.50
2023-03-18T01:27:46.275Z,12.50
2023-03-18T01:30:34.863Z,12.50
2023-03-18T01:33:21.202Z,12.50
2023-03-18T01:36:10.614Z,12.30
2023-03-18T01:38:57.822Z,12.40
2023-03-18T01:41:44.743Z,12.40
2023-03-18T01:44:31.500Z,12.30
2023-03-18T01:47:18.006Z,12.30
2023-03-18T01:50:04.934Z,12.30
2023-03-18T01:52:56.942Z,12.30
2023-03-18T01:55:45.200Z,12.20
2023-03-18T01:58:38.713Z,12.20
2023-03-18T02:01:30.149Z,12.20
2023-03-18T02:04:17.826Z,12.20
2023-03-18T02:07:07.926Z,12.20
2023-03-18T02:09:57.976Z,12.10
2023-03-18T02:12:50.945Z,12.10
2023-03-18T02:15:43.042Z,12.10
2023-03-18T02:18:33.728Z,12.00
2023-03-18T02:21:38.898Z,12.10
2023-03-18T02:24:38.000Z,12.10
2023-03-18T02:27:27.437Z,12.00
2023-03-18T02:30:17.085Z,12.00
2023-03-18T02:33:04.505Z,10.90
2023-03-18T02:35:56.676Z,12.00
2023-03-18T02:38:44.144Z,12.00
2023-03-18T02:41:33.158Z,12.00
2023-03-18T02:44:23.048Z,12.00
2023-03-18T02:47:13.112Z,12.00
2023-03-18T02:49:59.619Z,12.00
2023-03-18T02:52:45.904Z,12.00
2023-03-18T02:55:32.495Z,12.00
2023-03-18T02:58:19.237Z,12.00
2023-03-18T03:01:08.252Z,12.00
2023-03-18T03:03:54.915Z,12.00
2023-03-18T03:06:42.704Z,12.00
2023-03-18T03:09:29.575Z,12.00
2023-03-18T03:12:16.288Z,12.10
2023-03-18T03:15:03.112Z,12.00
2023-03-18T03:17:50.862Z,12.00
2023-03-18T03:20:39.027Z,12.00
2023-03-18T03:23:25.691Z,12.00
2023-03-18T03:26:12.713Z,12.00
2023-03-18T03:29:00.444Z,12.10
2023-03-18T03:31:47.471Z,12.00
2023-03-18T03:34:35.087Z,12.00
2023-03-18T03:37:21.968Z,12.00
2023-03-18T03:40:09.858Z,12.10
2023-03-18T03:42:56.464Z,12.10
2023-03-18T03:45:43.821Z,12.10
2023-03-18T03:48:30.616Z,12.00
2023-03-18T03:51:18.391Z,12.00
2023-03-18T03:54:05.429Z,12.00
2023-03-18T03:56:52.205Z,12.10
2023-03-18T03:59:38.649Z,12.00
2023-03-18T04:02:27.176Z,12.00
2023-03-18T04:05:14.772Z,12.00
2023-03-18T04:08:02.683Z,12.00
2023-03-18T04:10:49.098Z,12.00
2023-03-18T04:13:35.611Z,12.00
2023-03-18T04:16:22.057Z,12.00
2023-03-18T04:19:10.099Z,12.10
2023-03-18T04:21:56.778Z,12.00
2023-03-18T04:24:44.859Z,12.10
2023-03-18T04:27:32.364Z,12.10
2023-03-18T04:30:20.321Z,12.10
2023-03-18T04:33:07.019Z,12.00
2023-03-18T04:35:53.901Z,12.10
2023-03-18T04:38:40.772Z,12.10
2023-03-18T04:41:28.431Z,12.10
2023-03-18T04:44:15.315Z,12.10
2023-03-18T04:47:01.931Z,12.10
2023-03-18T04:49:48.304Z,12.00
2023-03-18T04:52:34.886Z,12.00
2023-03-18T04:55:21.564Z,12.00
2023-03-18T04:58:09.702Z,12.00
2023-03-18T05:00:56.769Z,11.90
2023-03-18T05:03:43.573Z,11.90
2023-03-18T05:06:33.674Z,11.90
2023-03-18T05:09:20.538Z,11.90
2023-03-18T05:12:07.424Z,11.90
2023-03-18T05:14:55.380Z,11.90
2023-03-18T05:17:41.698Z,12.00
2023-03-18T05:20:28.739Z,12.00
2023-03-18T05:23:15.775Z,12.00
2023-03-18T05:26:03.398Z,12.00
2023-03-18T05:28:49.796Z,12.00
2023-03-18T05:31:38.317Z,12.10
2023-03-18T05:34:25.062Z,12.10
2023-03-18T05:37:14.046Z,12.10
2023-03-18T05:40:01.433Z,12.10
2023-03-18T05:42:55.957Z,12.10
2023-03-18T05:45:44.176Z,12.10
2023-03-18T05:48:33.171Z,12.10
2023-03-18T05:51:20.641Z,12.10
2023-03-18T05:54:07.349Z,12.10
2023-03-18T05:56:54.850Z,12.10
2023-03-18T05:59:41.107Z,12.10
2023-03-18T06:02:28.053Z,12.10
2023-03-18T06:05:16.019Z,12.10
2023-03-18T06:08:03.124Z,12.10
2023-03-18T06:10:49.799Z,12.10
2023-03-18T06:13:36.482Z,12.10
2023-03-18T06:16:23.433Z,12.20
2023-03-18T06:19:10.792Z,12.20
2023-03-18T06:21:58.920Z,12.20
2023-03-18T06:24:47.877Z,12.20
2023-03-18T06:27:34.929Z,12.30
2023-03-18T06:30:22.120Z,12.30
2023-03-18T06:33:09.854Z,12.30
2023-03-18T06:35:57.933Z,12.30
2023-03-18T06:38:46.146Z,12.30
2023-03-18T06:41:32.629Z,12.30
2023-03-18T06:44:19.264Z,12.30
2023-03-18T06:47:05.745Z,12.30
2023-03-18T06:49:52.489Z,12.30
2023-03-18T06:52:39.108Z,12.30
2023-03-18T06:55:26.693Z,12.30
2023-03-18T06:58:13.201Z,12.40
2023-03-18T07:01:00.363Z,13.20
2023-03-18T07:03:47.140Z,12.30
2023-03-18T07:06:33.650Z,12.40
2023-03-18T07:09:20.672Z,12.40
2023-03-18T07:12:09.105Z,12.50
2023-03-18T07:14:55.684Z,12.60
2023-03-18T07:17:42.046Z,12.60
2023-03-18T07:20:28.764Z,12.60
2023-03-18T07:23:15.370Z,12.60
2023-03-18T07:26:02.210Z,12.70
2023-03-18T07:28:50.097Z,12.70
2023-03-18T07:31:37.152Z,12.70
2023-03-18T07:34:24.249Z,12.70
2023-03-18T07:37:10.881Z,12.70
2023-03-18T07:39:57.634Z,12.70
2023-03-18T07:42:44.393Z,12.70
2023-03-18T07:45:32.588Z,12.80
2023-03-18T07:48:19.536Z,12.80
2023-03-18T07:51:06.825Z,12.80
2023-03-18T07:53:53.608Z,12.90
2023-03-18T07:56:40.042Z,12.90
2023-03-18T07:59:26.448Z,12.90
2023-03-18T08:02:15.910Z,13.00
2023-03-18T08:05:03.539Z,13.00
2023-03-18T08:07:50.065Z,13.00
2023-03-18T08:10:36.686Z,13.20
2023-03-18T08:13:23.239Z,13.10
2023-03-18T08:16:10.027Z,13.00
2023-03-18T08:18:58.902Z,13.10
2023-03-18T08:21:45.598Z,13.20
2023-03-18T08:24:32.728Z,13.30
2023-03-18T08:27:19.322Z,13.20
2023-03-18T08:30:06.938Z,13.30
2023-03-18T08:32:53.368Z,13.30
2023-03-18T08:35:42.748Z,13.30
2023-03-18T08:38:29.486Z,13.30
2023-03-18T08:41:17.029Z,13.30
2023-03-18T08:44:06.486Z,13.30
2023-03-18T08:46:52.822Z,13.30
2023-03-18T08:49:39.455Z,13.40
2023-03-18T08:52:27.367Z,13.50
2023-03-18T08:55:13.865Z,13.60
2023-03-18T08:58:00.306Z,13.70
2023-03-18T09:00:46.837Z,13.70
2023-03-18T09:03:34.736Z,13.70
2023-03-18T09:06:21.407Z,13.70
2023-03-18T09:09:09.644Z,13.80
2023-03-18T09:11:56.365Z,13.80
2023-03-18T09:14:43.991Z,13.80
2023-03-18T09:17:50.939Z,13.70
2023-03-18T09:20:38.990Z,13.70
2023-03-18T09:23:26.443Z,13.80
2023-03-18T09:26:14.873Z,13.90
2023-03-18T09:29:01.484Z,14.00
2023-03-18T09:31:48.004Z,13.90
2023-03-18T09:34:34.484Z,14.00
2023-03-18T09:37:21.710Z,14.10
2023-03-18T09:40:10.768Z,14.20
2023-03-18T09:43:13.204Z,14.20
2023-03-18T09:46:05.712Z,14.40
2023-03-18T09:49:04.458Z,14.30
2023-03-18T09:52:01.394Z,14.30
2023-03-18T09:54:55.086Z,14.40
2023-03-18T09:57:46.415Z,14.50
2023-03-18T10:00:37.721Z,14.70
2023-03-18T10:03:32.464Z,15.00
2023-03-18T10:06:20.596Z,15.40
2023-03-18T10:09:15.361Z,15.50
2023-03-18T10:12:08.740Z,15.40
2023-03-18T10:15:08.689Z,15.30
2023-03-18T10:18:01.163Z,15.00
2023-03-18T10:20:56.676Z,14.90
2023-03-18T10:23:54.832Z,14.80
2023-03-18T10:26:46.288Z,14.90
2023-03-18T10:29:40.655Z,15.10
2023-03-18T10:32:48.584Z,15.10
2023-03-18T10:35:43.342Z,15.30
2023-03-18T10:38:36.356Z,15.40
2023-03-18T10:41:27.071Z,15.60
2023-03-18T10:44:21.049Z,15.50
2023-03-18T10:47:15.417Z,15.90
2023-03-18T10:50:06.172Z,16.00
2023-03-18T10:52:58.281Z,16.50
2023-03-18T10:55:57.422Z,16.60
2023-03-18T10:58:44.829Z,16.40
2023-03-18T11:01:31.322Z,16.60
2023-03-18T11:04:21.644Z,16.30
2023-03-18T11:07:15.460Z,16.20
2023-03-18T11:10:15.504Z,16.30
2023-03-18T11:13:03.308Z,16.50
2023-03-18T11:15:51.799Z,16.40
2023-03-18T11:18:38.986Z,16.20
2023-03-18T11:21:28.855Z,16.40
2023-03-18T11:24:36.291Z,16.40
2023-03-18T11:27:37.544Z,16.60
2023-03-18T11:30:34.095Z,16.30
2023-03-18T11:33:27.062Z,16.20
2023-03-18T11:36:19.359Z,16.30
2023-03-18T11:39:08.434Z,16.00
2023-03-18T11:41:55.416Z,16.20
2023-03-18T11:44:43.514Z,16.10
2023-03-18T11:47:35.076Z,16.00
2023-03-18T11:50:25.696Z,16.30
2023-03-18T11:53:18.362Z,16.30
2023-03-18T11:56:14.419Z,16.60
2023-03-18T11:59:13.796Z,16.80
2023-03-18T12:02:17.716Z,17.20
2023-03-18T12:05:37.973Z,17.30
2023-03-18T12:08:34.631Z,17.10
2023-03-18T12:11:29.072Z,17.30
2023-03-18T12:14:23.380Z,17.40
2023-03-18T12:17:23.443Z,17.50
2023-03-18T12:20:34.912Z,17.50
2023-03-18T12:23:54.705Z,17.30
2023-03-18T12:26:48.011Z,17.10
2023-03-18T12:29:51.260Z,17.50
2023-03-18T12:32:42.224Z,17.40
2023-03-18T12:35:50.250Z,17.70
2023-03-18T12:39:10.042Z,18.00
2023-03-18T12:42:03.350Z,17.90
2023-03-18T12:44:59.613Z,18.00
2023-03-18T12:47:50.946Z,18.10
2023-03-18T12:50:42.691Z,18.20
2023-03-18T12:53:34.330Z,18.30
2023-03-18T12:56:23.838Z,18.30
2023-03-18T12:59:16.556Z,18.30
2023-03-18T13:02:22.913Z,17.90
2023-03-18T13:05:22.277Z,17.80
2023-03-18T13:08:45.371Z,17.90
2023-03-18T13:11:46.395Z,18.00
2023-03-18T13:14:44.873Z,18.20
2023-03-18T13:17:34.374Z,18.20
2023-03-18T13:20:25.376Z,18.40
2023-03-18T13:23:21.809Z,18.50
2023-03-18T13:26:17.202Z,18.50
2023-03-18T13:29:20.099Z,18.50
2023-03-18T13:32:23.057Z,18.70
2023-03-18T13:35:30.943Z,18.50
2023-03-18T13:38:55.542Z,18.50
2023-03-18T13:42:13.914Z,18.60
2023-03-18T13:45:07.742Z,18.40
2023-03-18T13:47:59.395Z,18.70
2023-03-18T13:50:50.216Z,18.90
2023-03-18T13:53:43.997Z,18.70
2023-03-18T13:56:45.712Z,18.50
2023-03-18T13:59:49.544Z,18.40
2023-03-18T14:02:45.623Z,18.90
2023-03-18T14:05:37.017Z,19.10
2023-03-18T14:08:45.683Z,19.20
2023-03-18T14:11:46.955Z,19.20
2023-03-18T14:15:08.105Z,19.30
2023-03-18T14:17:58.280Z,19.10
2023-03-18T14:20:44.498Z,18.80
2023-03-18T14:23:40.041Z,18.60
2023-03-18T14:26:28.072Z,18.60
2023-03-18T14:29:36.204Z,18.60
2023-03-18T14:32:39.843Z,18.50
2023-03-18T14:35:29.553Z,18.50
2023-03-18T14:38:21.446Z,18.30
2023-03-18T14:41:18.347Z,18.30
2023-03-18T14:44:09.972Z,18.40
2023-03-18T14:47:00.241Z,18.50
2023-03-18T14:49:51.156Z,18.50
2023-03-18T14:52:42.000Z,18.40
2023-03-18T14:55:34.131Z,18.30
2023-03-18T14:58:24.202Z,18.20
2023-03-18T15:01:14.110Z,18.20
2023-03-18T15:04:02.486Z,18.30
2023-03-18T15:06:49.660Z,18.20
2023-03-18T15:09:37.802Z,18.20
2023-03-18T15:12:28.334Z,18.40
2023-03-18T15:15:18.856Z,18.20
2023-03-18T15:18:20.743Z,18.20
2023-03-18T15:21:11.099Z,18.30
2023-03-18T15:24:01.054Z,18.20
2023-03-18T15:26:56.350Z,18.10
2023-03-18T15:29:49.576Z,18.20
2023-03-18T15:32:46.378Z,18.00
2023-03-18T15:35:33.748Z,18.00
2023-03-18T15:38:20.822Z,17.90
2023-03-18T15:41:11.878Z,17.90
2023-03-18T15:43:58.558Z,17.90
2023-03-18T15:46:47.602Z,17.90
2023-03-18T15:49:49.974Z,17.90
2023-03-18T15:52:41.938Z,18.00
2023-03-18T15:55:29.904Z,18.20
2023-03-18T15:58:22.890Z,18.20
2023-03-18T16:01:17.298Z,17.50
2023-03-18T16:04:04.098Z,18.90
2023-03-18T16:06:53.755Z,18.90
2023-03-18T16:09:40.808Z,18.90
2023-03-18T16:12:30.959Z,18.70
2023-03-18T16:15:22.221Z,18.60
2023-03-18T16:18:10.679Z,18.20
2023-03-18T16:20:58.465Z,18.10
2023-03-18T16:23:47.849Z,18.10
2023-03-18T16:26:34.317Z,18.00
2023-03-18T16:29:27.796Z,18.00
2023-03-18T16:32:15.654Z,17.80
2023-03-18T16:35:03.620Z,17.90
2023-03-18T16:37:50.939Z,17.80
2023-03-18T16:40:38.864Z,17.70
2023-03-18T16:43:28.004Z,17.70
2023-03-18T16:46:15.524Z,17.60
2023-03-18T16:49:02.258Z,17.40
2023-03-18T16:51:49.701Z,17.30
2023-03-18T16:54:36.570Z,17.30
2023-03-18T16:57:25.047Z,17.10
2023-03-18T17:00:20.457Z,17.00
2023-03-18T17:03:07.047Z,16.80
2023-03-18T17:05:53.779Z,16.80
2023-03-18T17:08:41.167Z,16.70
2023-03-18T17:11:27.709Z,16.60
2023-03-18T17:14:32.547Z,16.50
2023-03-18T17:17:23.927Z,16.40
2023-03-18T17:20:19.543Z,16.40
2023-03-18T17:23:06.054Z,16.30
2023-03-18T17:25:54.483Z,16.90
2023-03-18T17:28:43.764Z,16.10
2023-03-18T17:31:31.819Z,16.00
2023-03-18T17:34:18.126Z,15.90
2023-03-18T17:37:05.232Z,15.80
2023-03-18T17:39:52.038Z,15.70
2023-03-18T17:42:38.642Z,15.60
2023-03-18T17:45:28.779Z,15.50
2023-03-18T17:48:21.473Z,15.40
2023-03-18T17:51:13.197Z,15.30
2023-03-18T17:54:02.298Z,15.30
2023-03-18T17:56:49.380Z,15.20
2023-03-18T17:59:36.349Z,15.20
2023-03-18T18:02:23.120Z,15.20
2023-03-18T18:05:15.276Z,15.20
2023-03-18T18:08:01.546Z,15.20
2023-03-18T18:10:49.221Z,15.20
2023-03-18T18:13:35.933Z,15.20
2023-03-18T18:16:22.875Z,15.20
2023-03-18T18:19:11.302Z,15.30
2023-03-18T18:22:03.541Z,15.20
2023-03-18T18:24:52.192Z,15.20
2023-03-18T18:27:38.806Z,15.20
2023-03-18T18:30:26.174Z,14.80
2023-03-18T18:33:12.630Z,14.80
2023-03-18T18:35:59.074Z,14.70
2023-03-18T18:38:46.806Z,14.50
2023-03-18T18:41:33.961Z,14.40
2023-03-18T18:44:21.778Z,14.30
2023-03-18T18:47:18.872Z,14.20
2023-03-18T18:50:06.592Z,13.80
2023-03-18T18:52:53.339Z,13.90
2023-03-18T18:55:41.153Z,13.70
2023-03-18T18:58:30.212Z,13.40
2023-03-18T19:01:17.129Z,13.30
2023-03-18T19:04:03.668Z,13.20
2023-03-18T19:06:50.971Z,13.30
2023-03-18T19:09:37.689Z,13.30
2023-03-18T19:12:27.631Z,13.40
2023-03-18T19:15:15.661Z,13.40
2023-03-18T19:18:04.771Z,13.50
2023-03-18T19:20:52.913Z,13.40
2023-03-18T19:23:39.427Z,13.30
2023-03-18T19:26:25.856Z,13.30
2023-03-18T19:29:13.608Z,13.20
2023-03-18T19:32:01.382Z,13.30
2023-03-18T19:34:49.247Z,13.40
2023-03-18T19:37:36.979Z,13.30
2023-03-18T19:40:29.784Z,13.30
2023-03-18T19:43:18.740Z,14.30
2023-03-18T19:46:07.135Z,11.70
2023-03-18T19:48:53.790Z,13.20
2023-03-18T19:51:40.039Z,13.20
2023-03-18T19:54:32.453Z,13.20
2023-03-18T19:57:22.583Z,13.10
2023-03-18T20:00:19.700Z,13.10
2023-03-18T20:03:14.733Z,13.20
2023-03-18T20:06:01.782Z,13.10
2023-03-18T20:08:48.346Z,13.10
2023-03-18T20:11:35.698Z,13.10
2023-03-18T20:14:27.399Z,11.90
2023-03-18T20:17:33.352Z,13.10
2023-03-18T20:20:23.346Z,13.10
2023-03-18T20:23:14.685Z,13.10
2023-03-18T20:26:01.582Z,13.00
2023-03-18T20:28:51.445Z,11.60
2023-03-18T20:31:37.938Z,13.10
2023-03-18T20:34:24.632Z,12.90
2023-03-18T20:37:21.795Z,12.90
2023-03-18T20:40:18.417Z,12.90
2023-03-18T20:43:04.865Z,12.90
2023-03-18T20:45:52.303Z,12.90
2023-03-18T20:48:39.144Z,12.90
2023-03-18T20:51:31.270Z,12.90
2023-03-18T20:54:22.082Z,12.90
2023-03-18T20:57:12.418Z,12.80
2023-03-18T20:59:58.770Z,12.80
2023-03-18T21:02:45.891Z,12.70
2023-03-18T21:05:32.621Z,12.70
2023-03-18T21:08:19.806Z,12.60
2023-03-18T21:11:07.695Z,12.60
2023-03-18T21:13:54.086Z,12.60
2023-03-18T21:16:40.686Z,12.60
2023-03-18T21:19:27.111Z,12.60
2023-03-18T21:22:17.917Z,12.50
2023-03-18T21:25:06.570Z,12.50
2023-03-18T21:27:56.608Z,12.40
2023-03-18T21:30:44.195Z,12.40
2023-03-18T21:33:32.713Z,12.40
2023-03-18T21:36:19.143Z,12.40
2023-03-18T21:39:07.264Z,12.40
2023-03-18T21:41:53.694Z,12.40
2023-03-18T21:44:41.385Z,12.40
2023-03-18T21:47:28.260Z,12.40
2023-03-18T21:50:23.965Z,12.40
2023-03-18T21:53:12.969Z,12.30
2023-03-18T21:55:59.445Z,12.30
2023-03-18T21:58:45.948Z,12.30
2023-03-18T22:01:34.155Z,12.30
2023-03-18T22:04:21.310Z,12.30
2023-03-18T22:07:12.832Z,12.30
2023-03-18T22:10:00.649Z,12.30
2023-03-18T22:12:47.376Z,12.20
2023-03-18T22:15:38.869Z,12.20
2023-03-18T22:18:26.996Z,12.10
2023-03-18T22:21:18.158Z,12.10
2023-03-18T22:24:04.753Z,12.10
2023-03-18T22:26:51.373Z,12.00
2023-03-18T22:29:37.824Z,12.00
2023-03-18T22:32:37.192Z,12.00
2023-03-18T22:35:27.782Z,12.00
2023-03-18T22:38:15.966Z,12.00
2023-03-18T22:41:02.595Z,11.90
2023-03-18T22:43:49.456Z,11.90
2023-03-18T22:46:36.254Z,11.80
2023-03-18T22:49:22.854Z,11.80
2023-03-18T22:52:15.638Z,11.70
2023-03-18T22:55:03.906Z,11.70
2023-03-18T22:57:51.126Z,11.70
2023-03-18T23:00:39.653Z,11.70
2023-03-18T23:03:29.813Z,11.70
2023-03-18T23:06:18.577Z,11.60
2023-03-18T23:09:06.891Z,11.60
2023-03-18T23:11:53.493Z,11.60
2023-03-18T23:14:40.922Z,11.50
2023-03-18T23:17:28.756Z,11.50
2023-03-18T23:20:17.558Z,11.50
2023-03-18T23:23:04.029Z,11.50
2023-03-18T23:25:53.410Z,11.50
2023-03-18T23:28:47.109Z,11.50
2023-03-18T23:31:34.063Z,11.40
2023-03-18T23:34:20.846Z,11.40
2023-03-18T23:37:07.540Z,11.40
2023-03-18T23:39:54.345Z,11.40
2023-03-18T23:42:42.143Z,11.40
2023-03-18T23:45:28.734Z,11.40
2023-03-18T23:48:15.346Z,11.40
2023-03-18T23:51:02.254Z,11.30
2023-03-18T23:53:48.722Z,11.30
2023-03-18T23:56:35.262Z,11.20
2023-03-18T23:59:23.410Z,11.20
